sensor_id;sensor_type;location;lat;lon;timestamp;pressure;altitude;pressure_sealevel;temperature;humidity
45941;BME280;31858;46.008;8.978;2023-09-07T00:08:24;95116.19;;;18.75;100.00
45941;BME280;31858;46.008;8.978;2023-09-07T00:18:26;95117.59;;;18.56;100.00
45941;BME280;31858;46.008;8.978;2023-09-07T00:28:29;95107.34;;;18.44;100.00
45941;BME280;31858;46.008;8.978;2023-09-07T00:38:31;95108.78;;;18.52;100.00
45941;BME280;31858;46.008;8.978;2023-09-07T00:48:34;95101.56;;;18.46;100.00
45941;BME280;31858;46.008;8.978;2023-09-07T00:58:37;95108.56;;;18.40;100.00
45941;BME280;31858;46.008;8.978;2023-09-07T01:08:44;95113.63;;;18.38;100.00
45941;BME280;31858;46.008;8.978;2023-09-07T01:18:46;95102.66;;;18.48;100.00
45941;BME280;31858;46.008;8.978;2023-09-07T01:28:49;95102.22;;;18.26;100.00
45941;BME280;31858;46.008;8.978;2023-09-07T01:38:51;95098.19;;;18.11;100.00
45941;BME280;31858;46.008;8.978;2023-09-07T01:48:54;95100.13;;;18.11;100.00
45941;BME280;31858;46.008;8.978;2023-09-07T01:58:56;95098.16;;;18.15;100.00
45941;BME280;31858;46.008;8.978;2023-09-07T02:08:59;95093.31;;;18.03;100.00
45941;BME280;31858;46.008;8.978;2023-09-07T02:19:01;95107.56;;;18.03;100.00
45941;BME280;31858;46.008;8.978;2023-09-07T02:29:05;95112.03;;;18.13;100.00
45941;BME280;31858;46.008;8.978;2023-09-07T02:39:07;95120.94;;;18.10;100.00
45941;BME280;31858;46.008;8.978;2023-09-07T02:49:10;95127.50;;;18.09;100.00
45941;BME280;31858;46.008;8.978;2023-09-07T02:59:11;95111.22;;;18.16;100.00
45941;BME280;31858;46.008;8.978;2023-09-07T03:09:15;95127.88;;;18.11;100.00
45941;BME280;31858;46.008;8.978;2023-09-07T03:19:16;95117.56;;;18.03;100.00
45941;BME280;31858;46.008;8.978;2023-09-07T03:29:19;95115.59;;;17.76;100.00
45941;BME280;31858;46.008;8.978;2023-09-07T03:39:21;95118.31;;;17.73;100.00
45941;BME280;31858;46.008;8.978;2023-09-07T03:49:24;95131.38;;;17.74;100.00
45941;BME280;31858;46.008;8.978;2023-09-07T03:59:27;95120.88;;;17.83;100.00
45941;BME280;31858;46.008;8.978;2023-09-07T04:09:30;95115.69;;;17.66;100.00
45941;BME280;31858;46.008;8.978;2023-09-07T04:19:32;95115.25;;;17.71;100.00
45941;BME280;31858;46.008;8.978;2023-09-07T04:29:35;95102.63;;;17.60;100.00
45941;BME280;31858;46.008;8.978;2023-09-07T04:39:37;95113.97;;;17.45;100.00
45941;BME280;31858;46.008;8.978;2023-09-07T04:49:41;95106.81;;;17.69;100.00
45941;BME280;31858;46.008;8.978;2023-09-07T04:59:43;95114.22;;;17.57;100.00
45941;BME280;31858;46.008;8.978;2023-09-07T05:09:46;95117.78;;;17.47;100.00
45941;BME280;31858;46.008;8.978;2023-09-07T05:19:49;95124.50;;;17.32;100.00
45941;BME280;31858;46.008;8.978;2023-09-07T05:29:52;95123.69;;;17.35;100.00
45941;BME280;31858;46.008;8.978;2023-09-07T05:39:53;95129.06;;;17.35;100.00
45941;BME280;31858;46.008;8.978;2023-09-07T05:49:56;95136.75;;;17.37;100.00
45941;BME280;31858;46.008;8.978;2023-09-07T05:59:58;95145.59;;;17.37;100.00
45941;BME280;31858;46.008;8.978;2023-09-07T06:10:01;95135.91;;;17.43;100.00
45941;BME280;31858;46.008;8.978;2023-09-07T06:20:03;95131.81;;;17.32;100.00
45941;BME280;31858;46.008;8.978;2023-09-07T06:30:08;95140.25;;;17.34;100.00
45941;BME280;31858;46.008;8.978;2023-09-07T06:40:10;95144.03;;;17.40;100.00
45941;BME280;31858;46.008;8.978;2023-09-07T06:50:15;95143.31;;;17.36;100.00
45941;BME280;31858;46.008;8.978;2023-09-07T07:00:16;95137.88;;;17.39;100.00
45941;BME280;31858;46.008;8.978;2023-09-07T07:10:19;95144.75;;;17.44;100.00
45941;BME280;31858;46.008;8.978;2023-09-07T07:20:21;95154.75;;;17.47;100.00
45941;BME280;31858;46.008;8.978;2023-09-07T07:30:26;95151.69;;;17.45;100.00
45941;BME280;31858;46.008;8.978;2023-09-07T07:40:28;95157.84;;;17.45;100.00
45941;BME280;31858;46.008;8.978;2023-09-07T07:50:31;95150.75;;;17.62;100.00
45941;BME280;31858;46.008;8.978;2023-09-07T08:00:33;95149.09;;;17.75;100.00
45941;BME280;31858;46.008;8.978;2023-09-07T08:10:37;95152.94;;;17.74;100.00
45941;BME280;31858;46.008;8.978;2023-09-07T08:20:38;95154.00;;;17.84;100.00
45941;BME280;31858;46.008;8.978;2023-09-07T08:30:43;95173.63;;;17.84;100.00
45941;BME280;31858;46.008;8.978;2023-09-07T08:40:44;95174.50;;;18.08;100.00
45941;BME280;31858;46.008;8.978;2023-09-07T08:50:48;95170.72;;;18.33;100.00
45941;BME280;31858;46.008;8.978;2023-09-07T09:00:53;95169.63;;;18.57;100.00
45941;BME280;31858;46.008;8.978;2023-09-07T09:11:02;95170.06;;;18.82;100.00
45941;BME280;31858;46.008;8.978;2023-09-07T09:21:04;95160.75;;;19.10;100.00
45941;BME280;31858;46.008;8.978;2023-09-07T09:31:07;95147.44;;;19.23;100.00
45941;BME280;31858;46.008;8.978;2023-09-07T09:41:12;95139.03;;;19.41;100.00
45941;BME280;31858;46.008;8.978;2023-09-07T09:51:17;95138.91;;;19.68;100.00
45941;BME280;31858;46.008;8.978;2023-09-07T10:01:20;95128.94;;;19.84;100.00
45941;BME280;31858;46.008;8.978;2023-09-07T10:11:35;95114.78;;;19.97;100.00
45941;BME280;31858;46.008;8.978;2023-09-07T10:21:39;95117.88;;;20.35;100.00
45941;BME280;31858;46.008;8.978;2023-09-07T10:31:50;95111.50;;;20.61;100.00
45941;BME280;31858;46.008;8.978;2023-09-07T10:41:52;95098.97;;;20.83;100.00
45941;BME280;31858;46.008;8.978;2023-09-07T10:51:55;95096.16;;;21.03;100.00
45941;BME280;31858;46.008;8.978;2023-09-07T11:02:03;95079.72;;;21.10;100.00
45941;BME280;31858;46.008;8.978;2023-09-07T11:12:07;95060.47;;;21.37;100.00
45941;BME280;31858;46.008;8.978;2023-09-07T11:22:09;95057.53;;;21.61;100.00
45941;BME280;31858;46.008;8.978;2023-09-07T11:32:12;95044.66;;;21.77;100.00
45941;BME280;31858;46.008;8.978;2023-09-07T11:42:14;95051.88;;;21.97;100.00
45941;BME280;31858;46.008;8.978;2023-09-07T11:52:17;95038.09;;;22.17;100.00
45941;BME280;31858;46.008;8.978;2023-09-07T12:02:19;95040.59;;;22.36;100.00
45941;BME280;31858;46.008;8.978;2023-09-07T12:12:22;95031.25;;;22.50;100.00
45941;BME280;31858;46.008;8.978;2023-09-07T12:22:24;95022.66;;;22.64;100.00
45941;BME280;31858;46.008;8.978;2023-09-07T12:32:28;95007.00;;;22.81;100.00
45941;BME280;31858;46.008;8.978;2023-09-07T12:42:30;95003.53;;;23.15;100.00
45941;BME280;31858;46.008;8.978;2023-09-07T12:52:34;95004.75;;;23.36;100.00
45941;BME280;31858;46.008;8.978;2023-09-07T13:02:37;94997.78;;;23.13;100.00
45941;BME280;31858;46.008;8.978;2023-09-07T13:12:41;94985.78;;;23.23;100.00
45941;BME280;31858;46.008;8.978;2023-09-07T13:22:42;94979.19;;;23.33;100.00
45941;BME280;31858;46.008;8.978;2023-09-07T13:32:45;94969.38;;;23.58;100.00
45941;BME280;31858;46.008;8.978;2023-09-07T13:42:48;94963.69;;;23.65;100.00
45941;BME280;31858;46.008;8.978;2023-09-07T13:52:51;94966.00;;;23.75;100.00
45941;BME280;31858;46.008;8.978;2023-09-07T14:02:52;94956.41;;;23.93;100.00
45941;BME280;31858;46.008;8.978;2023-09-07T14:12:55;94964.44;;;24.27;100.00
45941;BME280;31858;46.008;8.978;2023-09-07T14:22:57;94967.97;;;24.46;100.00
45941;BME280;31858;46.008;8.978;2023-09-07T14:33:01;94962.81;;;24.39;100.00
45941;BME280;31858;46.008;8.978;2023-09-07T14:43:03;94964.19;;;24.53;97.13
45941;BME280;31858;46.008;8.978;2023-09-07T14:53:07;94954.97;;;24.78;100.00
45941;BME280;31858;46.008;8.978;2023-09-07T15:03:09;94950.44;;;24.65;100.00
45941;BME280;31858;46.008;8.978;2023-09-07T15:13:12;94938.03;;;24.92;100.00
45941;BME280;31858;46.008;8.978;2023-09-07T15:23:14;94942.56;;;24.95;92.74
45941;BME280;31858;46.008;8.978;2023-09-07T15:33:16;94936.09;;;25.01;100.00
45941;BME280;31858;46.008;8.978;2023-09-07T15:43:18;94944.09;;;24.96;98.40
45941;BME280;31858;46.008;8.978;2023-09-07T15:53:21;94947.44;;;25.00;100.00
45941;BME280;31858;46.008;8.978;2023-09-07T16:03:22;94950.00;;;25.03;100.00
45941;BME280;31858;46.008;8.978;2023-09-07T16:13:26;94945.94;;;24.99;99.09
45941;BME280;31858;46.008;8.978;2023-09-07T16:23:27;94945.13;;;24.89;94.00
45941;BME280;31858;46.008;8.978;2023-09-07T16:33:30;94955.75;;;24.87;100.00
45941;BME280;31858;46.008;8.978;2023-09-07T16:43:32;94951.03;;;24.79;100.00
45941;BME280;31858;46.008;8.978;2023-09-07T16:53:35;94958.91;;;24.58;100.00
45941;BME280;31858;46.008;8.978;2023-09-07T17:03:37;94961.72;;;24.27;98.93
45941;BME280;31858;46.008;8.978;2023-09-07T17:13:40;94963.13;;;24.10;100.00
45941;BME280;31858;46.008;8.978;2023-09-07T17:23:42;94975.41;;;23.84;100.00
45941;BME280;31858;46.008;8.978;2023-09-07T17:33:45;94982.28;;;23.66;100.00
45941;BME280;31858;46.008;8.978;2023-09-07T17:43:47;94991.94;;;23.46;100.00
45941;BME280;31858;46.008;8.978;2023-09-07T17:53:50;95002.34;;;23.38;100.00
45941;BME280;31858;46.008;8.978;2023-09-07T18:03:51;95008.53;;;22.57;100.00
45941;BME280;31858;46.008;8.978;2023-09-07T18:13:54;95014.69;;;22.10;100.00
45941;BME280;31858;46.008;8.978;2023-09-07T18:23:56;95016.09;;;22.02;100.00
45941;BME280;31858;46.008;8.978;2023-09-07T18:33:59;95028.09;;;21.88;100.00
45941;BME280;31858;46.008;8.978;2023-09-07T18:44:00;95039.69;;;21.89;100.00
45941;BME280;31858;46.008;8.978;2023-09-07T18:54:03;95049.63;;;21.66;100.00
45941;BME280;31858;46.008;8.978;2023-09-07T19:04:10;95050.31;;;21.41;100.00
45941;BME280;31858;46.008;8.978;2023-09-07T19:14:13;95070.09;;;21.26;100.00
45941;BME280;31858;46.008;8.978;2023-09-07T19:24:15;95074.66;;;21.12;100.00
45941;BME280;31858;46.008;8.978;2023-09-07T19:34:17;95078.06;;;21.00;100.00
45941;BME280;31858;46.008;8.978;2023-09-07T19:44:19;95086.78;;;20.92;100.00
45941;BME280;31858;46.008;8.978;2023-09-07T19:54:24;95090.09;;;20.83;100.00
45941;BME280;31858;46.008;8.978;2023-09-07T20:04:26;95108.13;;;20.73;100.00
45941;BME280;31858;46.008;8.978;2023-09-07T20:14:29;95113.56;;;20.73;100.00
45941;BME280;31858;46.008;8.978;2023-09-07T20:24:31;95124.53;;;20.66;100.00
45941;BME280;31858;46.008;8.978;2023-09-07T20:34:35;95120.81;;;20.60;100.00
45941;BME280;31858;46.008;8.978;2023-09-07T20:44:36;95118.69;;;20.51;100.00
45941;BME280;31858;46.008;8.978;2023-09-07T20:54:39;95133.97;;;20.42;100.00
45941;BME280;31858;46.008;8.978;2023-09-07T21:04:41;95138.81;;;20.31;100.00
45941;BME280;31858;46.008;8.978;2023-09-07T21:14:44;95125.09;;;20.22;100.00
45941;BME280;31858;46.008;8.978;2023-09-07T21:24:45;95132.53;;;20.17;100.00
45941;BME280;31858;46.008;8.978;2023-09-07T21:34:48;95129.56;;;20.12;100.00
45941;BME280;31858;46.008;8.978;2023-09-07T21:44:50;95140.94;;;20.03;100.00
45941;BME280;31858;46.008;8.978;2023-09-07T21:54:54;95148.84;;;19.94;100.00
45941;BME280;31858;46.008;8.978;2023-09-07T22:04:56;95141.91;;;19.93;100.00
45941;BME280;31858;46.008;8.978;2023-09-07T22:14:59;95147.47;;;19.86;100.00
45941;BME280;31858;46.008;8.978;2023-09-07T22:25:00;95146.91;;;19.75;100.00
45941;BME280;31858;46.008;8.978;2023-09-07T22:35:04;95136.78;;;19.79;100.00
45941;BME280;31858;46.008;8.978;2023-09-07T22:45:07;95144.31;;;19.68;100.00
45941;BME280;31858;46.008;8.978;2023-09-07T22:55:10;95144.75;;;19.66;100.00
45941;BME280;31858;46.008;8.978;2023-09-07T23:05:12;95149.53;;;19.78;100.00
45941;BME280;31858;46.008;8.978;2023-09-07T23:15:15;95153.91;;;19.92;100.00
45941;BME280;31858;46.008;8.978;2023-09-07T23:25:18;95146.56;;;19.93;100.00
45941;BME280;31858;46.008;8.978;2023-09-07T23:35:21;95153.78;;;19.99;100.00
45941;BME280;31858;46.008;8.978;2023-09-07T23:45:23;95148.22;;;19.86;100.00
45941;BME280;31858;46.008;8.978;2023-09-07T23:55:26;95144.00;;;19.85;100.00
